Observation data for Roaring Springs on 07/10/2018      Previous  Date  Next       Current Mesonet Observations  Soil Data  Daily Summary Page  Observations in Plain Language
KRRS 100500Z 17004KT 24/18 A3021 RMK A01 T02390182  RH  074%=      5-min Rain = 0
KRRS 100505Z 17004KT 24/18 A3021 RMK A01 T02410182  RH  074%=      5-min Rain = 0
KRRS 100510Z 16005KT 24/18 A3021 RMK A01 T02420182  RH  073%=      5-min Rain = 0
KRRS 100515Z 16005KT 24/18 A3021 RMK A01 T02420182  RH  073%=      5-min Rain = 0
KRRS 100520Z 16004KT 24/18 A3021 RMK A01 T02420182  RH  073%=      5-min Rain = 0
KRRS 100525Z 16005KT 24/18 A3021 RMK A01 T02410182  RH  073%=      5-min Rain = 0
KRRS 100530Z 15005KT 24/18 A3022 RMK A01 T02400183  RH  074%=      5-min Rain = 0
KRRS 100535Z 16005KT 24/18 A3022 RMK A01 T02400182  RH  074%=      5-min Rain = 0
KRRS 100540Z 17005KT 24/18 A3022 RMK A01 T02410182  RH  073%=      5-min Rain = 0
KRRS 100545Z 18004KT 24/18 A3021 RMK A01 T02390182  RH  074%=      5-min Rain = 0
KRRS 100550Z 18004KT 24/18 A3021 RMK A01 T02370182  RH  075%=      5-min Rain = 0
KRRS 100555Z 19004KT 23/18 A3021 RMK A01 T02340182  RH  077%=      5-min Rain = 0
KRRS 100600Z 18004KT 23/18 A3021 RMK A01 T02310182  RH  078%=      5-min Rain = 0
KRRS 100605Z 20004KT 23/18 A3021 RMK A01 T02310182  RH  078%=      5-min Rain = 0
KRRS 100610Z 21004KT 23/18 A3021 RMK A01 T02300181  RH  078%=      5-min Rain = 0
KRRS 100615Z 22004KT 23/18 A3021 RMK A01 T02280181  RH  079%=      5-min Rain = 0
KRRS 100620Z 20004KT 23/18 A3021 RMK A01 T02270182  RH  080%=      5-min Rain = 0
KRRS 100625Z 18003KT 23/18 A3021 RMK A01 T02260182  RH  081%=      5-min Rain = 0
KRRS 100630Z 17003KT 23/18 A3021 RMK A01 T02270183  RH  081%=      5-min Rain = 0
KRRS 100635Z 17003KT 23/18 A3021 RMK A01 T02280183  RH  080%=      5-min Rain = 0
KRRS 100640Z 16003KT 23/18 A3022 RMK A01 T02310183  RH  078%=      5-min Rain = 0
KRRS 100645Z 16003KT 23/18 A3022 RMK A01 T02320183  RH  078%=      5-min Rain = 0
KRRS 100650Z 12003KT 23/19 A3022 RMK A01 T02310185  RH  079%=      5-min Rain = 0
KRRS 100655Z 12003KT 23/19 A3022 RMK A01 T02280186  RH  082%=      5-min Rain = 0
KRRS 100700Z 14003KT 23/19 A3022 RMK A01 T02270185  RH  081%=      5-min Rain = 0
KRRS 100705Z 16003KT 23/18 A3022 RMK A01 T02280184  RH  080%=      5-min Rain = 0
KRRS 100710Z 16005KT 23/18 A3022 RMK A01 T02290182  RH  079%=      5-min Rain = 0
KRRS 100715Z 17006KT 23/18 A3022 RMK A01 T02290182  RH  079%=      5-min Rain = 0
KRRS 100720Z 18005KT 23/18 A3022 RMK A01 T02260182  RH  080%=      5-min Rain = 0
KRRS 100725Z 18006KT 22/18 A3022 RMK A01 T02220183  RH  082%=      5-min Rain = 0
KRRS 100730Z 20005KT 22/18 A3022 RMK A01 T02200182  RH  083%=      5-min Rain = 0
KRRS 100735Z 21005KT 22/18 A3022 RMK A01 T02160181  RH  085%=      5-min Rain = 0
KRRS 100740Z 22005KT 21/18 A3021 RMK A01 T02140181  RH  086%=      5-min Rain = 0
KRRS 100745Z 23005KT 21/18 A3022 RMK A01 T02140181  RH  086%=      5-min Rain = 0
KRRS 100750Z 24004KT 22/18 A3021 RMK A01 T02150182  RH  086%=      5-min Rain = 0
KRRS 100755Z 25004KT 21/18 A3021 RMK A01 T02140182  RH  087%=      5-min Rain = 0
KRRS 100800Z 25004KT 21/18 A3021 RMK A01 T02130183  RH  088%=      5-min Rain = 0
KRRS 100805Z 24004KT 21/18 A3021 RMK A01 T02120184  RH  089%=      5-min Rain = 0
KRRS 100810Z 25004KT 21/18 A3021 RMK A01 T02110183  RH  089%=      5-min Rain = 0
KRRS 100815Z 25004KT 21/18 A3021 RMK A01 T02110184  RH  089%=      5-min Rain = 0
KRRS 100820Z 26005KT 21/18 A3021 RMK A01 T02110183  RH  089%=      5-min Rain = 0
KRRS 100825Z 25004KT 21/18 A3021 RMK A01 T02110183  RH  089%=      5-min Rain = 0
KRRS 100830Z 24004KT 21/18 A3022 RMK A01 T02120183  RH  088%=      5-min Rain = 0
KRRS 100835Z 23004KT 21/18 A3022 RMK A01 T02110183  RH  088%=      5-min Rain = 0
KRRS 100840Z 24003KT 21/18 A3022 RMK A01 T02110183  RH  089%=      5-min Rain = 0
KRRS 100845Z 24003KT 21/18 A3022 RMK A01 T02120183  RH  088%=      5-min Rain = 0
KRRS 100850Z 27004KT 21/18 A3022 RMK A01 T02120182  RH  087%=      5-min Rain = 0
KRRS 100855Z 27005KT 21/18 A3022 RMK A01 T02110181  RH  088%=      5-min Rain = 0
KRRS 100900Z 27006KT 21/18 A3022 RMK A01 T02090181  RH  088%=      5-min Rain = 0
KRRS 100905Z 27006KT 21/18 A3022 RMK A01 T02090181  RH  088%=      5-min Rain = 0
KRRS 100910Z 28006KT 21/18 A3022 RMK A01 T02090180  RH  088%=      5-min Rain = 0
KRRS 100915Z 27006KT 21/18 A3022 RMK A01 T02090180  RH  088%=      5-min Rain = 0
KRRS 100920Z 27006KT 21/18 A3021 RMK A01 T02100180  RH  087%=      5-min Rain = 0
KRRS 100925Z 28006KT 21/18 A3021 RMK A01 T02100179  RH  087%=      5-min Rain = 0
KRRS 100930Z 28006KT 21/18 A3021 RMK A01 T02090179  RH  087%=      5-min Rain = 0
KRRS 100935Z 28007KT 21/18 A3021 RMK A01 T02090179  RH  087%=      5-min Rain = 0
KRRS 100940Z 27006KT 21/18 A3021 RMK A01 T02080179  RH  087%=      5-min Rain = 0
KRRS 100945Z 28006KT 21/18 A3021 RMK A01 T02080178  RH  088%=      5-min Rain = 0
KRRS 100950Z 28006KT 21/18 A3021 RMK A01 T02060178  RH  088%=      5-min Rain = 0
KRRS 100955Z 29007KT 21/18 A3021 RMK A01 T02060177  RH  088%=      5-min Rain = 0
KRRS 101000Z 29007KT 21/18 A3021 RMK A01 T02060177  RH  088%=      5-min Rain = 0
KRRS 101005Z 29007KT 21/18 A3021 RMK A01 T02060178  RH  088%=      5-min Rain = 0
KRRS 101010Z 29007KT 21/18 A3021 RMK A01 T02070178  RH  088%=      5-min Rain = 0
KRRS 101015Z 29006KT 21/18 A3021 RMK A01 T02070178  RH  088%=      5-min Rain = 0
KRRS 101020Z 29006KT 21/18 A3021 RMK A01 T02070178  RH  088%=      5-min Rain = 0
KRRS 101025Z 29006KT 21/18 A3021 RMK A01 T02080178  RH  088%=      5-min Rain = 0
KRRS 101030Z 29007KT 21/18 A3021 RMK A01 T02070178  RH  088%=      5-min Rain = 0
KRRS 101035Z 29007KT 21/18 A3021 RMK A01 T02080178  RH  088%=      5-min Rain = 0
KRRS 101040Z 29006KT 21/18 A3021 RMK A01 T02080179  RH  088%=      5-min Rain = 0
KRRS 101045Z 29007KT 21/18 A3021 RMK A01 T02080179  RH  088%=      5-min Rain = 0
KRRS 101050Z 29007KT 21/18 A3021 RMK A01 T02090179  RH  088%=      5-min Rain = 0
KRRS 101055Z 29007KT 21/18 A3021 RMK A01 T02100180  RH  087%=      5-min Rain = 0
KRRS 101100Z 28007KT 21/18 A3021 RMK A01 T02100180  RH  087%=      5-min Rain = 0
KRRS 101105Z 28006KT 21/18 A3021 RMK A01 T02100180  RH  087%=      5-min Rain = 0
KRRS 101110Z 29006KT 21/18 A3022 RMK A01 T02090180  RH  088%=      5-min Rain = 0
KRRS 101115Z 28006KT 21/18 A3022 RMK A01 T02090180  RH  088%=      5-min Rain = 0
KRRS 101120Z 26005KT 21/18 A3022 RMK A01 T02080180  RH  088%=      5-min Rain = 0
KRRS 101125Z 24004KT 20/18 A3022 RMK A01 T02040179  RH  090%=      5-min Rain = 0
KRRS 101130Z 26004KT 20/18 A3022 RMK A01 T02030179  RH  091%=      5-min Rain = 0
KRRS 101135Z 25004KT 20/18 A3022 RMK A01 T02020178  RH  091%=      5-min Rain = 0
KRRS 101140Z 25005KT 20/18 A3022 RMK A01 T01990178  RH  092%=      5-min Rain = 0
KRRS 101145Z 25005KT 20/18 A3022 RMK A01 T01980177  RH  093%=      5-min Rain = 0
KRRS 101150Z 25005KT 20/18 A3022 RMK A01 T01970177  RH  093%=      5-min Rain = 0
KRRS 101155Z 26004KT 20/18 A3022 RMK A01 T01970177  RH  093%=      5-min Rain = 0
KRRS 101200Z 26004KT 20/18 A3022 RMK A01 T01970176  RH  093%=      5-min Rain = 0
KRRS 101205Z 27005KT 20/18 A3022 RMK A01 T01980177  RH  092%=      5-min Rain = 0
KRRS 101210Z 28005KT 20/18 A3022 RMK A01 T02010179  RH  092%=      5-min Rain = 0
KRRS 101215Z 28006KT 21/18 A3022 RMK A01 T02050180  RH  090%=      5-min Rain = 0
KRRS 101220Z 28006KT 21/18 A3021 RMK A01 T02090180  RH  088%=      5-min Rain = 0
KRRS 101225Z 28006KT 21/18 A3021 RMK A01 T02130181  RH  086%=      5-min Rain = 0
KRRS 101230Z 28005KT 22/18 A3021 RMK A01 T02160182  RH  085%=      5-min Rain = 0
KRRS 101235Z 28005KT 22/18 A3021 RMK A01 T02190183  RH  084%=      5-min Rain = 0
KRRS 101240Z 28004KT 22/18 A3021 RMK A01 T02230184  RH  083%=      5-min Rain = 0
KRRS 101245Z 28004KT 23/18 A3022 RMK A01 T02260184  RH  081%=      5-min Rain = 0
KRRS 101250Z 29004KT 23/19 A3022 RMK A01 T02300185  RH  080%=      5-min Rain = 0
KRRS 101255Z 30003KT 23/19 A3022 RMK A01 T02340186  RH  079%=      5-min Rain = 0
KRRS 101300Z 30004KT 24/19 A3022 RMK A01 T02380186  RH  077%=      5-min Rain = 0
KRRS 101305Z 29003KT 24/19 A3022 RMK A01 T02430187  RH  075%=      5-min Rain = 0
KRRS 101310Z 27003KT 25/19 A3022 RMK A01 T02460188  RH  074%=      5-min Rain = 0
KRRS 101315Z 28003KT 25/19 A3022 RMK A01 T02490190  RH  073%=      5-min Rain = 0
KRRS 101320Z 30003KT 25/19 A3022 RMK A01 T02530189  RH  072%=      5-min Rain = 0
KRRS 101325Z 31003KT 26/19 A3023 RMK A01 T02560191  RH  071%=      5-min Rain = 0
KRRS 101330Z 31004KT 26/19 A3023 RMK A01 T02590189  RH  069%=      5-min Rain = 0
KRRS 101335Z 32002KT 26/19 A3023 RMK A01 T02630189  RH  067%=      5-min Rain = 0
KRRS 101340Z 31001KT 27/19 A3023 RMK A01 T02670188  RH  066%=      5-min Rain = 0
KRRS 101345Z 02001KT 27/18 A3023 RMK A01 T02710183  RH  062%=      5-min Rain = 0
KRRS 101350Z 09001KT 27/18 A3023 RMK A01 T02730181  RH  060%=      5-min Rain = 0
KRRS 101355Z 17001KT 28/18 A3023 RMK A01 T02750183  RH  061%=      5-min Rain = 0
KRRS 101400Z 13001KT 28/18 A3023 RMK A01 T02770184  RH  060%=      5-min Rain = 0
KRRS 101405Z 11000KT 28/19 A3023 RMK A01 T02780185  RH  060%=      5-min Rain = 0
KRRS 101410Z 15002KT 28/19 A3023 RMK A01 T02800185  RH  059%=      5-min Rain = 0
KRRS 101415Z 12002KT 28/19 A3023 RMK A01 T02780185  RH  060%=      5-min Rain = 0
KRRS 101420Z 10003KT 28/19 A3023 RMK A01 T02770185  RH  060%=      5-min Rain = 0
KRRS 101425Z 14004KT 28/19 A3023 RMK A01 T02780185  RH  060%=      5-min Rain = 0
KRRS 101430Z 13003KT 28/19 A3023 RMK A01 T02790185  RH  060%=      5-min Rain = 0
KRRS 101435Z 13003KT 28/18 A3023 RMK A01 T02810184  RH  059%=      5-min Rain = 0
KRRS 101440Z 16003KT 28/18 A3023 RMK A01 T02800182  RH  058%=      5-min Rain = 0
KRRS 101445Z 17002KT 28/19 A3023 RMK A01 T02800185  RH  059%=      5-min Rain = 0
KRRS 101450Z 14004KT 28/18 A3023 RMK A01 T02820184  RH  058%=      5-min Rain = 0
KRRS 101455Z 18001KT 28/18 A3023 RMK A01 T02810183  RH  058%=      5-min Rain = 0
KRRS 101500Z 17003KT 28/18 A3023 RMK A01 T02820184  RH  058%=      5-min Rain = 0
KRRS 101505Z 13002KT 28/18 A3023 RMK A01 T02820183  RH  058%=      5-min Rain = 0
KRRS 101510Z 06002KT 29/18 A3023 RMK A01 T02860182  RH  056%=      5-min Rain = 0
KRRS 101515Z 10001KT 28/18 A3023 RMK A01 T02830181  RH  057%=      5-min Rain = 0
KRRS 101520Z 12004KT 29/19 A3023 RMK A01 T02860186  RH  058%=      5-min Rain = 0
KRRS 101525Z 10004KT 29/19 A3023 RMK A01 T02880185  RH  057%=      5-min Rain = 0
KRRS 101530Z 17004KT 29/18 A3023 RMK A01 T02880183  RH  056%=      5-min Rain = 0
KRRS 101535Z 13004KT 29/18 A3023 RMK A01 T02900184  RH  056%=      5-min Rain = 0
KRRS 101540Z 17005KT 29/18 A3023 RMK A01 T02900183  RH  055%=      5-min Rain = 0
KRRS 101545Z 19005KT 29/18 A3023 RMK A01 T02880181  RH  056%=      5-min Rain = 0
KRRS 101550Z 19003KT 29/18 A3023 RMK A01 T02850180  RH  056%=      5-min Rain = 0
KRRS 101555Z 16004KT 29/18 A3023 RMK A01 T02880180  RH  055%=      5-min Rain = 0
KRRS 101600Z 11004KT 29/18 A3022 RMK A01 T02920183  RH  055%=      5-min Rain = 0
KRRS 101605Z 14005KT 30/18 A3022 RMK A01 T02950182  RH  053%=      5-min Rain = 0
KRRS 101610Z 14006KT 29/18 A3022 RMK A01 T02940181  RH  053%=      5-min Rain = 0
KRRS 101615Z 19003KT 29/18 A3022 RMK A01 T02920180  RH  053%=      5-min Rain = 0
KRRS 101620Z 22003KT 29/18 A3022 RMK A01 T02920177  RH  053%=      5-min Rain = 0
KRRS 101625Z 11003G8KT 29/18 A3022 RMK A01 T02930179  RH  053%=      5-min Rain = 0
KRRS 101630Z 10005KT 30/18 A3022 RMK A01 T02960177  RH  052%=      5-min Rain = 0
KRRS 101635Z 17001KT 30/18 A3022 RMK A01 T02960178  RH  052%=      5-min Rain = 0
KRRS 101640Z 14004KT 29/18 A3022 RMK A01 T02940176  RH  051%=      5-min Rain = 0
KRRS 101645Z 14006KT 30/18 A3022 RMK A01 T02990180  RH  052%=      5-min Rain = 0
KRRS 101650Z 16003KT 30/18 A3022 RMK A01 T02950175  RH  051%=      5-min Rain = 0
KRRS 101655Z 25001KT 29/18 A3021 RMK A01 T02940177  RH  052%=      5-min Rain = 0
KRRS 101700Z 15005KT 30/18 A3021 RMK A01 T03010178  RH  050%=      5-min Rain = 0
KRRS 101705Z 16007G12KT 30/18 A3021 RMK A01 T03040178  RH  049%=      5-min Rain = 0
KRRS 101710Z 17002KT 30/18 A3021 RMK A01 T03040176  RH  049%=      5-min Rain = 0
KRRS 101715Z 13005KT 31/18 A3021 RMK A01 T03050176  RH  048%=      5-min Rain = 0
KRRS 101720Z 11005KT 31/18 A302 RMK A01 T03070177  RH  048%=      5-min Rain = 0
KRRS 101725Z 14003G10KT 31/18 A302 RMK A01 T03080177  RH  048%=      5-min Rain = 0
KRRS 101730Z 15007KT 31/18 A302 RMK A01 T03100181  RH  049%=      5-min Rain = 0
KRRS 101735Z 13005KT 31/18 A302 RMK A01 T03070178  RH  049%=      5-min Rain = 0
KRRS 101740Z 13006G11KT 31/18 A302 RMK A01 T03050177  RH  049%=      5-min Rain = 0
KRRS 101745Z 11005KT 30/18 A302 RMK A01 T03040176  RH  049%=      5-min Rain = 0
KRRS 101750Z 20002KT 30/18 A3019 RMK A01 T03040175  RH  048%=      5-min Rain = 0
KRRS 101755Z 13005KT 31/18 A3019 RMK A01 T03060178  RH  049%=      5-min Rain = 0
KRRS 101800Z 11007KT 31/17 A3019 RMK A01 T03080174  RH  047%=      5-min Rain = 0
KRRS 101805Z 13006KT 31/18 A3019 RMK A01 T03100177  RH  048%=      5-min Rain = 0
KRRS 101810Z 14008KT 32/18 A3018 RMK A01 T03150179  RH  047%=      5-min Rain = 0
KRRS 101815Z 14004KT 32/18 A3018 RMK A01 T03160178  RH  046%=      5-min Rain = 0
KRRS 101820Z 18003KT 31/18 A3018 RMK A01 T03140176  RH  046%=      5-min Rain = 0
KRRS 101825Z 10007KT 31/18 A3018 RMK A01 T03140179  RH  047%=      5-min Rain = 0
KRRS 101830Z 14005G12KT 31/18 A3018 RMK A01 T03070175  RH  048%=      5-min Rain = 0
KRRS 101835Z 15005G10KT 31/17 A3017 RMK A01 T03060174  RH  048%=      5-min Rain = 0
KRRS 101840Z 14005KT 31/18 A3017 RMK A01 T03110177  RH  047%=      5-min Rain = 0
KRRS 101845Z 13007G13KT 32/18 A3017 RMK A01 T03180181  RH  047%=      5-min Rain = 0
KRRS 101850Z 10005G12KT 32/18 A3017 RMK A01 T03170180  RH  046%=      5-min Rain = 0
KRRS 101855Z 16007G12KT 32/18 A3017 RMK A01 T03170178  RH  046%=      5-min Rain = 0
KRRS 101900Z 14008G13KT 32/18 A3017 RMK A01 T03220181  RH  046%=      5-min Rain = 0
KRRS 101905Z 11005KT 32/18 A3017 RMK A01 T03220181  RH  046%=      5-min Rain = 0
KRRS 101910Z 12002KT 32/18 A3016 RMK A01 T03180178  RH  046%=      5-min Rain = 0
KRRS 101915Z 15006KT 31/18 A3016 RMK A01 T03140179  RH  047%=      5-min Rain = 0
KRRS 101920Z 17007G13KT 31/17 A3016 RMK A01 T03120174  RH  046%=      5-min Rain = 0
KRRS 101925Z 20007G12KT 32/18 A3015 RMK A01 T03190175  RH  045%=      5-min Rain = 0
KRRS 101930Z 15005G12KT 32/18 A3015 RMK A01 T03230176  RH  044%=      5-min Rain = 0
KRRS 101935Z 12009G17KT 33/18 A3015 RMK A01 T03270177  RH  043%=      5-min Rain = 0
KRRS 101940Z 13012G17KT 32/18 A3015 RMK A01 T03160177  RH  046%=      5-min Rain = 0
KRRS 101945Z 14011G16KT 32/18 A3014 RMK A01 T03170181  RH  047%=      5-min Rain = 0
KRRS 101950Z 14012G20KT 32/18 A3014 RMK A01 T03240180  RH  045%=      5-min Rain = 0
KRRS 101955Z 14010KT 32/18 A3014 RMK A01 T03240180  RH  044%=      5-min Rain = 0
KRRS 102000Z 17009KT 32/18 A3014 RMK A01 T03220177  RH  044%=      5-min Rain = 0
KRRS 102005Z 17009KT 32/18 A3014 RMK A01 T03200177  RH  045%=      5-min Rain = 0
KRRS 102010Z 13008G13KT 32/18 A3014 RMK A01 T03220179  RH  045%=      5-min Rain = 0
KRRS 102015Z 15011KT 33/18 A3013 RMK A01 T03260177  RH  043%=      5-min Rain = 0
KRRS 102020Z 15010KT 33/17 A3013 RMK A01 T03250173  RH  042%=      5-min Rain = 0
KRRS 102025Z 15008G13KT 32/17 A3013 RMK A01 T03230170  RH  042%=      5-min Rain = 0
KRRS 102030Z 15006KT 32/17 A3013 RMK A01 T03210167  RH  042%=      5-min Rain = 0
KRRS 102035Z 16010KT 32/17 A3012 RMK A01 T03240166  RH  041%=      5-min Rain = 0
KRRS 102040Z 11010KT 33/17 A3012 RMK A01 T03250165  RH  040%=      5-min Rain = 0
KRRS 102045Z 16008KT 33/16 A3012 RMK A01 T03280164  RH  039%=      5-min Rain = 0
KRRS 102050Z 18006G11KT 33/16 A3012 RMK A01 T03250160  RH  039%=      5-min Rain = 0
KRRS 102055Z 17006KT 33/16 A3011 RMK A01 T03260163  RH  040%=      5-min Rain = 0
KRRS 102100Z 17008G15KT 33/16 A3011 RMK A01 T03290162  RH  039%=      5-min Rain = 0
KRRS 102105Z 17008G13KT 33/16 A3011 RMK A01 T03340162  RH  038%=      5-min Rain = 0
KRRS 102110Z 18007KT 33/16 A301 RMK A01 T03290156  RH  037%=      5-min Rain = 0
KRRS 102115Z 15008G14KT 33/16 A301 RMK A01 T03310157  RH  037%=      5-min Rain = 0
KRRS 102120Z 16010KT 33/16 A301 RMK A01 T03310156  RH  037%=      5-min Rain = 0
KRRS 102125Z 17005KT 33/16 A301 RMK A01 T03290159  RH  038%=      5-min Rain = 0
KRRS 102130Z 15008G14KT 33/16 A301 RMK A01 T03280157  RH  037%=      5-min Rain = 0
KRRS 102135Z 16008G15KT 33/16 A301 RMK A01 T03300158  RH  037%=      5-min Rain = 0
KRRS 102140Z 14006KT 33/16 A301 RMK A01 T03300157  RH  037%=      5-min Rain = 0
KRRS 102145Z 13010G16KT 33/16 A301 RMK A01 T03300157  RH  037%=      5-min Rain = 0
KRRS 102150Z 13008KT 33/16 A3009 RMK A01 T03310158  RH  037%=      5-min Rain = 0
KRRS 102155Z 11005KT 33/16 A3009 RMK A01 T03300156  RH  037%=      5-min Rain = 0
KRRS 102200Z 10005KT 33/16 A3009 RMK A01 T03290158  RH  038%=      5-min Rain = 0
KRRS 102205Z 14009G14KT 33/16 A3009 RMK A01 T03320158  RH  037%=      5-min Rain = 0
KRRS 102210Z 14010G16KT 33/16 A3009 RMK A01 T03330155  RH  036%=      5-min Rain = 0
KRRS 102215Z 12008KT 33/16 A3009 RMK A01 T03310157  RH  037%=      5-min Rain = 0
KRRS 102220Z 16004KT 33/15 A3009 RMK A01 T03300153  RH  036%=      5-min Rain = 0
KRRS 102225Z 12003G8KT 33/15 A3008 RMK A01 T03310154  RH  036%=      5-min Rain = 0
KRRS 102230Z 16009G16KT 33/16 A3008 RMK A01 T03320155  RH  036%=      5-min Rain = 0
KRRS 102235Z 16004G9KT 33/16 A3008 RMK A01 T03300156  RH  037%=      5-min Rain = 0
KRRS 102240Z 11003KT 33/15 A3008 RMK A01 T03280154  RH  037%=      5-min Rain = 0
KRRS 102245Z 15008G13KT 33/16 A3007 RMK A01 T03300157  RH  037%=      5-min Rain = 0
KRRS 102250Z 15007G13KT 33/16 A3007 RMK A01 T03300155  RH  036%=      5-min Rain = 0
KRRS 102255Z 19005G10KT 33/15 A3007 RMK A01 T03290154  RH  037%=      5-min Rain = 0
KRRS 102300Z 14008G14KT 33/16 A3007 RMK A01 T03310158  RH  037%=      5-min Rain = 0
KRRS 102305Z 15010KT 33/16 A3007 RMK A01 T03310156  RH  037%=      5-min Rain = 0
KRRS 102310Z 15006G11KT 33/16 A3007 RMK A01 T03300155  RH  037%=      5-min Rain = 0
KRRS 102315Z 13008KT 33/16 A3006 RMK A01 T03310161  RH  038%=      5-min Rain = 0
KRRS 102320Z 16009G14KT 33/16 A3006 RMK A01 T03310163  RH  038%=      5-min Rain = 0
KRRS 102325Z 16009KT 33/16 A3006 RMK A01 T03290163  RH  039%=      5-min Rain = 0
KRRS 102330Z 17007G13KT 33/16 A3006 RMK A01 T03290162  RH  039%=      5-min Rain = 0
KRRS 102335Z 18006KT 33/16 A3006 RMK A01 T03270160  RH  038%=      5-min Rain = 0
KRRS 102340Z 18008KT 32/16 A3006 RMK A01 T03240160  RH  039%=      5-min Rain = 0
KRRS 102345Z 12011G24KT 32/17 A3007 RMK A01 T03240167  RH  041%=      5-min Rain = 0
KRRS 102350Z 11019G26KT 30/19 A3007 RMK A01 T03030187  RH  053%=      5-min Rain = 0
KRRS 102355Z 10020G25KT 29/19 A3007 RMK A01 T02890188  RH  058%=      5-min Rain = 0
KRRS 110000Z 10017G22KT 28/19 A3008 RMK A01 T02800189  RH  061%=      5-min Rain = 0
KRRS 110005Z 10016G21KT 27/19 A3008 RMK A01 T02730189  RH  063%=      5-min Rain = 0
KRRS 110010Z 10017G22KT 27/19 A3008 RMK A01 T02710190  RH  065%=      5-min Rain = 0
KRRS 110015Z 10014KT 27/19 A3008 RMK A01 T02730191  RH  064%=      5-min Rain = 0
KRRS 110020Z 10014KT 27/19 A3008 RMK A01 T02740190  RH  064%=      5-min Rain = 0
KRRS 110025Z 10016G21KT 28/19 A3009 RMK A01 T02760187  RH  061%=      5-min Rain = 0
KRRS 110030Z 10015KT 28/19 A3009 RMK A01 T02770185  RH  061%=      5-min Rain = 0
KRRS 110035Z 10014G19KT 28/18 A3009 RMK A01 T02780183  RH  059%=      5-min Rain = 0
KRRS 110040Z 10014G20KT 28/18 A3009 RMK A01 T02810181  RH  057%=      5-min Rain = 0
KRRS 110045Z 10015KT 28/18 A3008 RMK A01 T02820179  RH  056%=      5-min Rain = 0
KRRS 110050Z 10012KT 28/18 A3009 RMK A01 T02810178  RH  056%=      5-min Rain = 0
KRRS 110055Z 11012KT 28/18 A3009 RMK A01 T02810177  RH  056%=      5-min Rain = 0
KRRS 110100Z 11010KT 28/18 A3009 RMK A01 T02770178  RH  058%=      5-min Rain = 0
KRRS 110105Z 12010G15KT 28/18 A3009 RMK A01 T02750178  RH  058%=      5-min Rain = 0
KRRS 110110Z 14009KT 27/18 A3009 RMK A01 T02730180  RH  060%=      5-min Rain = 0
KRRS 110115Z 14008KT 27/18 A3009 RMK A01 T02720182  RH  061%=      5-min Rain = 0
KRRS 110120Z 17008KT 27/18 A3008 RMK A01 T02720182  RH  061%=      5-min Rain = 0
KRRS 110125Z 17008KT 27/18 A3008 RMK A01 T02730181  RH  061%=      5-min Rain = 0
KRRS 110130Z 17007KT 27/18 A3008 RMK A01 T02720182  RH  061%=      5-min Rain = 0
KRRS 110135Z 18009G14KT 27/18 A3008 RMK A01 T02710181  RH  061%=      5-min Rain = 0
KRRS 110140Z 19013KT 28/18 A3008 RMK A01 T02750175  RH  057%=      5-min Rain = 0
KRRS 110145Z 19013G19KT 28/17 A3008 RMK A01 T02770174  RH  056%=      5-min Rain = 0
KRRS 110150Z 19013G19KT 28/17 A3008 RMK A01 T02770172  RH  056%=      5-min Rain = 0
KRRS 110155Z 19012KT 28/17 A3008 RMK A01 T02770171  RH  055%=      5-min Rain = 0
KRRS 110200Z 19010KT 28/17 A3009 RMK A01 T02770172  RH  056%=      5-min Rain = 0
KRRS 110205Z 18009KT 28/17 A3009 RMK A01 T02760173  RH  056%=      5-min Rain = 0
KRRS 110210Z 18007KT 28/17 A3009 RMK A01 T02750173  RH  056%=      5-min Rain = 0
KRRS 110215Z 18006KT 27/17 A3009 RMK A01 T02740174  RH  057%=      5-min Rain = 0
KRRS 110220Z 18006KT 27/17 A3009 RMK A01 T02720174  RH  058%=      5-min Rain = 0
KRRS 110225Z 18006KT 27/17 A3009 RMK A01 T02700174  RH  058%=      5-min Rain = 0
KRRS 110230Z 17005KT 27/17 A3009 RMK A01 T02710173  RH  058%=      5-min Rain = 0
KRRS 110235Z 17005KT 27/17 A3009 RMK A01 T02710172  RH  058%=      5-min Rain = 0
KRRS 110240Z 14004KT 27/17 A301 RMK A01 T02710174  RH  058%=      5-min Rain = 0
KRRS 110245Z 14004KT 27/18 A301 RMK A01 T02680175  RH  060%=      5-min Rain = 0
KRRS 110250Z 13005KT 27/18 A301 RMK A01 T02650175  RH  061%=      5-min Rain = 0
KRRS 110255Z 13006KT 26/17 A301 RMK A01 T02640174  RH  061%=      5-min Rain = 0
KRRS 110300Z 13006KT 26/18 A301 RMK A01 T02620175  RH  062%=      5-min Rain = 0
KRRS 110305Z 13007KT 26/17 A301 RMK A01 T02610174  RH  062%=      5-min Rain = 0
KRRS 110310Z 12006KT 26/17 A301 RMK A01 T02610173  RH  062%=      5-min Rain = 0
KRRS 110315Z 10005KT 26/18 A301 RMK A01 T02580179  RH  065%=      5-min Rain = 0
KRRS 110320Z 10004KT 25/19 A3011 RMK A01 T02530187  RH  071%=      5-min Rain = 0
KRRS 110325Z 09005KT 25/19 A3011 RMK A01 T02490190  RH  074%=      5-min Rain = 0
KRRS 110330Z 10005KT 25/19 A3011 RMK A01 T02480192  RH  075%=      5-min Rain = 0
KRRS 110335Z 11005KT 25/19 A3011 RMK A01 T02470190  RH  074%=      5-min Rain = 0
KRRS 110340Z 13005KT 25/18 A3012 RMK A01 T02480183  RH  071%=      5-min Rain = 0
KRRS 110345Z 14006KT 25/18 A3012 RMK A01 T02490177  RH  068%=      5-min Rain = 0
KRRS 110350Z 15007KT 25/18 A3012 RMK A01 T02510175  RH  066%=      5-min Rain = 0
KRRS 110355Z 15006KT 26/18 A3012 RMK A01 T02550175  RH  064%=      5-min Rain = 0
KRRS 110400Z 16007KT 26/18 A3012 RMK A01 T02560175  RH  064%=      5-min Rain = 0
KRRS 110405Z 16007KT 26/18 A3012 RMK A01 T02580175  RH  063%=      5-min Rain = 0
KRRS 110410Z 16007KT 26/18 A3012 RMK A01 T02580176  RH  064%=      5-min Rain = 0
KRRS 110415Z 16007KT 26/18 A3012 RMK A01 T02580177  RH  064%=      5-min Rain = 0
KRRS 110420Z 16007KT 26/18 A3012 RMK A01 T02570178  RH  065%=      5-min Rain = 0
KRRS 110425Z 16006KT 26/18 A3011 RMK A01 T02550178  RH  066%=      5-min Rain = 0
KRRS 110430Z 17006KT 25/18 A3011 RMK A01 T02540179  RH  067%=      5-min Rain = 0
KRRS 110435Z 17006KT 25/18 A3011 RMK A01 T02520180  RH  068%=      5-min Rain = 0
KRRS 110440Z 16006KT 25/18 A3011 RMK A01 T02510181  RH  068%=      5-min Rain = 0
KRRS 110445Z 17006KT 25/18 A3011 RMK A01 T02500181  RH  069%=      5-min Rain = 0
KRRS 110450Z 17006KT 25/18 A3011 RMK A01 T02480182  RH  070%=      5-min Rain = 0
KRRS 110455Z 17006KT 25/18 A3011 RMK A01 T02470181  RH  070%=      5-min Rain = 0

Page generated in 0.0089 seconds.